Time;durP1;ratioP1;P1;durP2;ratioP2;P2;SDS_P1;SDS_P2;PMS_P1;PMS_P2;Temp;Humidity;BMP_temperature;BMP_pressure;BME280_temperature;BME280_humidity;BME280_pressure;Samples;Min_cycle;Max_cycle;Signal;HPM_P1;HPM_P2
2022/02/16 00:00:57;;;;;;;23.30;22.30;;;18.40;57.60;;;;;;5051029;28;20829;-45
2022/02/16 00:03:25;;;;;;;22.30;21.30;;;18.40;57.80;;;;;;5051121;28;20452;-48
2022/02/16 00:05:52;;;;;;;22.20;21.30;;;18.30;58.00;;;;;;5050888;28;20436;-46
2022/02/16 00:08:18;;;;;;;22.80;21.83;;;18.30;58.30;;;;;;5050756;28;20448;-49
2022/02/16 00:10:45;;;;;;;23.23;22.13;;;18.20;58.40;;;;;;5050906;28;20993;-45
2022/02/16 00:13:12;;;;;;;22.53;21.43;;;18.20;58.50;;;;;;5054407;28;20819;-45
2022/02/16 00:15:38;;;;;;;22.00;21.10;;;18.20;58.70;;;;;;5054662;28;20479;-48
2022/02/16 00:18:06;;;;;;;21.97;21.07;;;18.10;58.80;;;;;;5054482;28;20444;-47
2022/02/16 00:20:34;;;;;;;22.10;21.20;;;18.10;59.10;;;;;;5059226;28;20452;-44
2022/02/16 00:23:01;;;;;;;22.27;21.37;;;18.00;59.20;;;;;;5059283;28;20455;-43
2022/02/16 00:25:28;;;;;;;22.60;21.60;;;18.00;59.40;;;;;;5054247;28;20456;-43
2022/02/16 00:27:55;;;;;;;22.20;21.30;;;18.00;59.60;;;;;;5054215;28;20443;-48
2022/02/16 00:30:22;;;;;;;21.77;20.87;;;17.90;59.60;;;;;;5054329;28;20445;-45
2022/02/16 00:32:48;;;;;;;22.40;21.50;;;17.90;60.30;;;;;;5054420;28;20813;-45
2022/02/16 00:35:15;;;;;;;22.03;21.13;;;17.90;59.80;;;;;;5054227;28;20998;-47
2022/02/16 00:37:43;;;;;;;22.03;21.13;;;17.90;59.90;;;;;;5054064;28;20436;-44
2022/02/16 00:40:11;;;;;;;22.20;21.30;;;17.90;60.10;;;;;;5054308;28;20455;-43
2022/02/16 00:42:38;;;;;;;22.03;21.13;;;17.80;60.10;;;;;;5054177;28;20487;-44
2022/02/16 00:45:06;;;;;;;22.60;21.60;;;17.80;60.30;;;;;;5054630;28;20443;-47
2022/02/16 00:47:33;;;;;;;22.50;21.50;;;17.80;60.50;;;;;;5053947;28;20453;-45
2022/02/16 00:49:59;;;;;;;22.40;21.40;;;17.80;60.60;;;;;;5053996;28;20822;-46
2022/02/16 00:52:26;;;;;;;22.40;21.40;;;17.80;60.60;;;;;;5054055;28;20464;-43
2022/02/16 00:54:54;;;;;;;22.20;21.20;;;17.80;60.60;;;;;;5054069;28;20456;-47
2022/02/16 00:57:21;;;;;;;22.43;21.43;;;17.70;60.60;;;;;;5053683;28;20995;-45
2022/02/16 00:59:48;;;;;;;22.20;21.20;;;17.70;60.70;;;;;;5053665;28;20444;-46
2022/02/16 01:02:15;;;;;;;22.30;21.30;;;17.70;60.90;;;;;;5053971;28;20504;-46
2022/02/16 01:04:42;;;;;;;22.03;21.10;;;17.70;61.20;;;;;;5053887;28;20452;-44
2022/02/16 01:07:09;;;;;;;22.30;21.30;;;17.60;61.10;;;;;;5053690;28;20506;-46
2022/02/16 01:09:36;;;;;;;22.20;21.20;;;17.60;61.10;;;;;;5053759;28;20475;-47
2022/02/16 01:12:04;;;;;;;22.13;21.13;;;17.60;61.20;;;;;;5053662;28;20460;-46
2022/02/16 01:14:31;;;;;;;22.00;21.10;;;17.60;61.40;;;;;;5053576;28;20937;-45
2022/02/16 01:16:58;;;;;;;22.53;21.53;;;17.60;61.50;;;;;;5053390;28;20487;-45
2022/02/16 01:19:25;;;;;;;22.40;21.40;;;17.60;61.60;;;;;;5053106;28;20459;-44
2022/02/16 01:21:52;;;;;;;22.60;21.60;;;17.60;61.70;;;;;;5053030;28;20495;-47
2022/02/16 01:24:19;;;;;;;22.10;21.10;;;17.50;61.70;;;;;;5053564;28;20933;-46
2022/02/16 01:26:46;;;;;;;22.33;21.33;;;17.50;62.00;;;;;;5053148;28;20451;-45
2022/02/16 01:29:14;;;;;;;21.90;21.00;;;17.50;61.90;;;;;;5053014;28;20969;-43
2022/02/16 01:31:41;;;;;;;21.80;20.90;;;17.50;62.20;;;;;;5053229;28;20475;-44
2022/02/16 01:34:08;;;;;;;22.10;21.20;;;17.40;62.00;;;;;;5053287;28;20448;-46
2022/02/16 01:36:35;;;;;;;22.90;21.80;;;17.50;62.40;;;;;;5053069;28;21053;-45
2022/02/16 01:39:02;;;;;;;22.10;21.10;;;17.50;62.20;;;;;;5052948;28;20525;-47
2022/02/16 01:41:28;;;;;;;22.00;21.10;;;17.40;62.20;;;;;;5052889;28;21004;-47
2022/02/16 01:43:55;;;;;;;22.00;21.10;;;17.40;62.20;;;;;;5052843;28;20450;-43
2022/02/16 01:46:23;;;;;;;21.90;21.00;;;17.40;62.40;;;;;;5052384;28;20440;-47
2022/02/16 01:48:50;;;;;;;21.93;21.03;;;17.40;62.40;;;;;;5052967;28;20440;-44
2022/02/16 01:51:17;;;;;;;21.87;20.97;;;17.40;62.80;;;;;;5052904;28;20474;-44
2022/02/16 01:53:45;;;;;;;22.20;21.30;;;17.40;62.60;;;;;;5052860;28;20957;-43
2022/02/16 01:56:12;;;;;;;21.83;20.83;;;17.40;62.60;;;;;;5052279;28;20817;-46
2022/02/16 01:58:40;;;;;;;21.50;20.60;;;17.40;62.70;;;;;;5052872;28;20809;-46
2022/02/16 02:01:08;;;;;;;21.90;21.00;;;17.30;62.80;;;;;;5052828;28;20471;-45
2022/02/16 02:03:36;;;;;;;21.50;20.60;;;17.30;62.90;;;;;;5052623;28;20445;-43
2022/02/16 02:06:03;;;;;;;21.60;20.70;;;17.30;63.00;;;;;;5052265;28;20444;-42
2022/02/16 02:08:30;;;;;;;21.80;20.90;;;17.30;63.20;;;;;;5052553;28;20441;-45
2022/02/16 02:10:57;;;;;;;21.77;20.87;;;17.30;63.30;;;;;;5052498;28;20825;-45
2022/02/16 02:13:24;;;;;;;22.10;21.20;;;17.30;63.60;;;;;;5052129;28;20452;-42
2022/02/16 02:15:51;;;;;;;21.90;20.90;;;17.30;64.50;;;;;;5052295;28;20826;-44
2022/02/16 02:18:19;;;;;;;21.37;20.47;;;17.20;63.90;;;;;;5052088;28;20834;-43
2022/02/16 02:20:47;;;;;;;21.30;20.40;;;17.20;64.10;;;;;;5052142;28;20500;-46
2022/02/16 02:23:14;;;;;;;22.00;21.10;;;17.20;64.50;;;;;;5051863;28;20444;-50
2022/02/16 02:25:45;;;;;;;21.40;20.50;;;17.20;64.40;;;;;;5052087;28;20451;-45
2022/02/16 02:28:12;;;;;;;21.60;20.70;;;17.20;64.70;;;;;;5052226;28;20448;-44
2022/02/16 02:30:39;;;;;;;21.60;20.70;;;17.20;64.90;;;;;;5052136;28;20468;-42
2022/02/16 02:33:05;;;;;;;21.50;20.60;;;17.10;64.90;;;;;;5051909;28;20440;-43
2022/02/16 02:35:32;;;;;;;21.63;20.73;;;17.10;65.30;;;;;;5051197;28;20440;-43
2022/02/16 02:38:00;;;;;;;21.87;20.97;;;17.10;65.20;;;;;;5052000;28;20448;-44
2022/02/16 02:40:27;;;;;;;21.80;20.90;;;17.10;65.20;;;;;;5051871;28;20451;-42
2022/02/16 02:42:54;;;;;;;21.50;20.60;;;17.10;65.60;;;;;;5051710;28;20475;-46
2022/02/16 02:45:21;;;;;;;21.60;20.70;;;17.10;65.70;;;;;;5051931;28;20440;-44
2022/02/16 02:47:47;;;;;;;22.13;21.23;;;17.10;65.60;;;;;;5051777;28;20444;-46
2022/02/16 02:50:14;;;;;;;22.07;21.17;;;17.10;65.80;;;;;;5051938;28;20451;-46
2022/02/16 02:52:41;;;;;;;22.20;21.30;;;17.10;65.70;;;;;;5051519;28;20831;-42
2022/02/16 02:55:12;;;;;;;21.60;20.70;;;17.10;65.90;;;;;;5051704;28;20447;-41
2022/02/16 02:57:39;;;;;;;21.83;20.93;;;17.10;65.90;;;;;;5051567;28;20985;-45
2022/02/16 03:00:08;;;;;;;21.50;20.60;;;17.10;66.10;;;;;;5051724;28;20785;-43
2022/02/16 03:02:35;;;;;;;21.73;20.77;;;17.10;66.00;;;;;;5051445;28;20651;-48
2022/02/16 03:05:02;;;;;;;21.70;20.80;;;17.10;66.40;;;;;;5051777;28;20447;-43
2022/02/16 03:07:29;;;;;;;22.07;20.97;;;17.10;66.80;;;;;;5051465;28;20443;-43
2022/02/16 03:09:56;;;;;;;21.90;21.00;;;17.00;66.80;;;;;;5051458;28;20448;-43
2022/02/16 03:12:24;;;;;;;21.70;20.80;;;17.00;66.90;;;;;;5051300;28;21108;-45
2022/02/16 03:14:51;;;;;;;21.40;20.50;;;17.00;67.10;;;;;;5051522;28;20437;-47
2022/02/16 03:17:17;;;;;;;22.00;21.10;;;17.00;67.40;;;;;;5051254;28;21020;-43
2022/02/16 03:19:44;;;;;;;21.33;20.43;;;17.00;67.30;;;;;;5051574;28;20514;-43
2022/02/16 03:22:11;;;;;;;21.60;20.70;;;17.00;67.30;;;;;;5051079;28;20484;-45
2022/02/16 03:24:38;;;;;;;21.20;20.30;;;17.00;67.40;;;;;;5051253;28;20445;-44
2022/02/16 03:27:05;;;;;;;21.60;20.70;;;17.00;67.70;;;;;;5051202;28;20492;-46
2022/02/16 03:29:33;;;;;;;21.70;20.80;;;17.00;67.80;;;;;;5051420;28;20444;-51
2022/02/16 03:31:59;;;;;;;21.63;20.73;;;17.00;67.80;;;;;;5051163;28;20460;-45
2022/02/16 03:34:26;;;;;;;21.60;20.70;;;17.00;67.90;;;;;;5051551;28;20440;-45
2022/02/16 03:36:53;;;;;;;21.40;20.50;;;17.00;68.00;;;;;;5051047;28;20538;-45
2022/02/16 03:39:20;;;;;;;21.77;20.87;;;17.00;68.30;;;;;;5051410;28;20440;-45
2022/02/16 03:41:47;;;;;;;21.80;20.90;;;17.00;68.30;;;;;;5050749;28;20461;-47
2022/02/16 03:44:14;;;;;;;21.80;20.90;;;17.00;68.40;;;;;;5051059;28;20455;-46
2022/02/16 03:46:43;;;;;;;22.20;21.30;;;17.00;68.50;;;;;;5054204;28;20480;-44
2022/02/16 03:49:09;;;;;;;22.00;21.10;;;17.00;68.40;;;;;;5055256;28;20449;-47
2022/02/16 03:51:36;;;;;;;21.80;20.90;;;16.90;68.50;;;;;;5054790;28;20467;-47
2022/02/16 03:54:03;;;;;;;21.50;20.50;;;17.00;68.90;;;;;;5055131;28;20455;-45
2022/02/16 03:56:30;;;;;;;21.60;20.70;;;16.90;68.90;;;;;;5054909;28;20845;-49
2022/02/16 03:58:56;;;;;;;21.90;21.00;;;16.90;69.60;;;;;;5055016;28;20444;-50
2022/02/16 04:01:23;;;;;;;22.00;21.10;;;16.90;69.80;;;;;;5054683;28;20464;-44
2022/02/16 04:03:51;;;;;;;22.10;21.20;;;16.90;69.90;;;;;;5054869;28;20454;-46
2022/02/16 04:06:18;;;;;;;21.70;20.80;;;16.90;70.30;;;;;;5054753;28;20463;-44
2022/02/16 04:08:45;;;;;;;21.60;20.70;;;16.90;70.40;;;;;;5054847;28;20523;-44
2022/02/16 04:11:12;;;;;;;21.83;20.93;;;16.90;70.60;;;;;;5054513;28;20464;-43
2022/02/16 04:13:39;;;;;;;21.57;20.67;;;16.90;70.90;;;;;;5054647;28;20539;-45
2022/02/16 04:16:06;;;;;;;21.73;20.83;;;16.90;71.20;;;;;;5054208;28;20972;-45
2022/02/16 04:18:33;;;;;;;21.97;21.07;;;16.90;71.60;;;;;;5054473;28;20934;-46
2022/02/16 04:21:01;;;;;;;21.40;20.50;;;17.00;71.70;;;;;;5054149;28;20480;-46
2022/02/16 04:23:28;;;;;;;21.60;20.70;;;16.90;72.00;;;;;;5054466;28;20452;-46
2022/02/16 04:25:55;;;;;;;21.23;20.33;;;16.90;72.60;;;;;;5054399;28;20452;-49
2022/02/16 04:28:23;;;;;;;21.10;20.20;;;16.90;72.70;;;;;;5054411;28;20515;-45
2022/02/16 04:30:49;;;;;;;21.50;20.60;;;16.90;73.30;;;;;;5054408;28;20512;-46
2022/02/16 04:33:16;;;;;;;21.50;20.60;;;16.90;74.10;;;;;;5054265;28;20459;-50
2022/02/16 04:35:44;;;;;;;21.10;20.20;;;16.90;75.40;;;;;;5054273;28;20448;-46
2022/02/16 04:38:12;;;;;;;21.50;20.60;;;16.90;76.40;;;;;;5054165;28;20488;-47
2022/02/16 04:40:39;;;;;;;21.10;20.20;;;16.90;77.10;;;;;;5054328;28;21100;-43
2022/02/16 04:43:06;;;;;;;21.40;20.50;;;16.90;78.10;;;;;;5053866;28;20448;-50
2022/02/16 04:45:34;;;;;;;21.40;20.50;;;17.00;78.90;;;;;;5054262;28;20829;-46
2022/02/16 04:48:01;;;;;;;21.37;20.47;;;16.90;79.50;;;;;;5054174;28;20440;-45
2022/02/16 04:50:28;;;;;;;21.80;20.80;;;16.90;80.30;;;;;;5054022;28;20449;-45
2022/02/16 04:52:55;;;;;;;21.60;20.60;;;16.90;80.90;;;;;;5053741;28;20444;-46
2022/02/16 04:55:24;;;;;;;21.40;20.50;;;16.90;81.20;;;;;;5053657;28;20455;-45
2022/02/16 04:57:51;;;;;;;21.40;20.50;;;16.90;81.80;;;;;;5053232;28;20480;-44
2022/02/16 05:00:19;;;;;;;21.60;20.70;;;16.90;82.20;;;;;;5054069;28;20491;-48
2022/02/16 05:02:45;;;;;;;22.33;21.13;;;17.00;82.20;;;;;;5053408;28;20459;-49
2022/02/16 05:05:12;;;;;;;23.17;21.60;;;17.00;86.60;;;;;;5053558;28;20448;-47
2022/02/16 05:07:39;;;;;;;21.90;20.90;;;17.00;99.00;;;;;;5053731;28;20439;-49
2022/02/16 05:10:08;;;;;;;22.27;21.20;;;17.00;99.90;;;;;;5053755;28;20451;-48
2022/02/16 05:12:38;;;;;;;24.30;22.43;;;17.00;99.90;;;;;;5053480;28;20539;-45
2022/02/16 05:15:06;;;;;;;23.80;22.00;;;17.00;99.90;;;;;;5053685;28;20868;-45
2022/02/16 05:17:33;;;;;;;26.43;21.43;;;17.10;99.90;;;;;;5053313;28;20480;-50
2022/02/16 05:19:59;;;;;;;30.77;21.53;;;17.20;99.90;;;;;;5053594;28;20440;-49
2022/02/16 05:22:26;;;;;;;21.43;18.50;;;17.30;99.90;;;;;;5053294;28;20472;-43
2022/02/16 05:24:53;;;;;;;26.13;16.17;;;17.40;99.90;;;;;;5053399;28;20448;-43
2022/02/16 05:39:10;;;;;;;21.57;20.07;;;17.40;99.90;;;;;;5108855;27;20626;-40
2022/02/16 05:41:37;;;;;;;20.67;19.10;;;17.70;99.90;;;;;;5088979;28;20438;-41
2022/02/16 05:44:04;;;;;;;23.03;20.77;;;17.60;99.90;;;;;;5087418;28;20450;-40
2022/02/16 05:46:31;;;;;;;22.83;20.60;;;17.50;99.90;;;;;;5088668;28;20521;-41
2022/02/16 05:48:57;;;;;;;21.97;20.17;;;17.50;99.90;;;;;;5088567;28;20462;-40
2022/02/16 05:51:24;;;;;;;22.17;20.10;;;17.60;99.90;;;;;;5089308;28;20454;-43
2022/02/16 05:53:51;;;;;;;23.23;21.63;;;17.90;99.90;;;;;;5088709;28;20442;-40
2022/02/16 05:56:19;;;;;;;23.13;21.33;;;18.20;99.90;;;;;;5088584;28;20447;-41
2022/02/16 05:58:46;;;;;;;23.63;21.93;;;18.40;99.90;;;;;;5088311;28;20470;-40
2022/02/16 06:01:12;;;;;;;23.83;22.13;;;18.50;99.90;;;;;;5088597;28;20442;-40
2022/02/16 06:03:42;;;;;;;24.60;22.77;;;18.70;99.90;;;;;;5088528;28;20449;-40
2022/02/16 06:06:09;;;;;;;24.27;22.70;;;18.80;99.90;;;;;;5088659;28;20806;-40
2022/02/16 06:08:36;;;;;;;23.50;21.87;;;18.90;99.90;;;;;;5088026;28;20493;-40
2022/02/16 06:11:03;;;;;;;23.33;21.83;;;19.00;99.90;;;;;;5088393;28;20458;-41
2022/02/16 06:13:31;;;;;;;24.63;22.90;;;19.10;99.90;;;;;;5088242;28;20455;-40
2022/02/16 06:15:57;;;;;;;23.77;22.27;;;19.20;99.90;;;;;;5088229;28;20965;-41
2022/02/16 06:18:24;;;;;;;24.57;22.87;;;19.30;99.90;;;;;;5088017;28;20944;-40
2022/02/16 06:20:51;;;;;;;25.23;23.43;;;19.30;99.90;;;;;;5088368;28;20438;-40
2022/02/16 06:23:18;;;;;;;23.77;22.37;;;19.40;99.90;;;;;;5088036;28;20450;-41
2022/02/16 06:25:45;;;;;;;24.23;22.47;;;19.40;99.90;;;;;;5088112;28;20447;-40
2022/02/16 06:28:11;;;;;;;23.70;22.20;;;19.50;99.90;;;;;;5087767;28;20485;-41
2022/02/16 06:30:39;;;;;;;23.37;21.97;;;19.50;99.90;;;;;;5087789;28;20960;-40
2022/02/16 06:33:06;;;;;;;22.60;21.30;;;19.50;99.90;;;;;;5088012;28;20813;-40
2022/02/16 06:35:34;;;;;;;24.10;22.57;;;19.50;99.90;;;;;;5087913;28;20783;-41
2022/02/16 06:38:00;;;;;;;22.93;21.33;;;19.60;99.90;;;;;;5086544;28;20535;-40
2022/02/16 06:40:28;;;;;;;23.37;21.87;;;19.60;99.90;;;;;;5073948;28;20463;-40
2022/02/16 06:42:55;;;;;;;24.07;22.57;;;19.60;99.60;;;;;;5074219;28;20810;-41
2022/02/16 06:45:22;;;;;;;23.57;22.23;;;19.60;99.10;;;;;;5074248;28;20447;-40
2022/02/16 06:47:50;;;;;;;26.50;25.00;;;19.60;98.50;;;;;;5073952;28;20490;-40
2022/02/16 06:50:17;;;;;;;27.77;26.47;;;19.60;98.10;;;;;;5074041;28;20474;-40
2022/02/16 06:52:44;;;;;;;28.17;26.50;;;19.60;97.60;;;;;;5074045;28;20447;-42
2022/02/16 06:55:11;;;;;;;27.87;26.00;;;19.70;97.20;;;;;;5073987;28;20842;-40
2022/02/16 06:57:37;;;;;;;28.60;27.00;;;19.60;96.60;;;;;;5074064;28;20451;-40
2022/02/16 07:00:06;;;;;;;27.40;25.70;;;19.70;96.30;;;;;;5073689;28;20478;-40
2022/02/16 07:02:33;;;;;;;27.47;26.07;;;19.70;95.80;;;;;;5073977;28;20842;-40
2022/02/16 07:05:01;;;;;;;28.23;26.57;;;19.70;95.40;;;;;;5073984;28;20455;-46
2022/02/16 07:07:29;;;;;;;26.23;24.93;;;19.70;94.90;;;;;;5073862;28;20487;-41
2022/02/16 07:09:56;;;;;;;29.30;27.63;;;19.70;94.50;;;;;;5073531;28;20467;-41
2022/02/16 07:12:23;;;;;;;29.10;27.30;;;19.70;94.10;;;;;;5073718;28;20798;-41
2022/02/16 07:14:53;;;;;;;28.17;26.60;;;19.70;93.70;;;;;;5073794;28;20444;-40
2022/02/16 07:17:20;;;;;;;28.30;27.00;;;19.70;93.30;;;;;;5073713;28;20443;-40
2022/02/16 07:19:47;;;;;;;26.37;24.70;;;19.70;92.90;;;;;;5073519;28;20968;-40
2022/02/16 07:22:16;;;;;;;29.30;27.70;;;19.70;92.60;;;;;;5073544;28;20450;-40
2022/02/16 07:24:43;;;;;;;29.20;27.80;;;19.70;92.20;;;;;;5073551;28;20447;-39
2022/02/16 07:27:10;;;;;;;25.20;24.00;;;19.60;91.80;;;;;;5073326;28;20444;-40
2022/02/16 07:29:36;;;;;;;25.40;24.20;;;19.60;91.40;;;;;;5073286;28;20470;-39
2022/02/16 07:32:04;;;;;;;26.37;24.97;;;19.60;91.20;;;;;;5073438;28;20815;-40
2022/02/16 07:34:31;;;;;;;25.30;23.80;;;19.60;90.90;;;;;;5073408;28;20446;-39
2022/02/16 07:37:00;;;;;;;23.53;22.47;;;19.60;90.70;;;;;;5073226;28;20521;-40
2022/02/16 07:39:28;;;;;;;24.83;23.27;;;19.50;90.30;;;;;;5073067;28;20464;-40
2022/02/16 07:41:55;;;;;;;24.97;23.67;;;19.50;90.10;;;;;;5073147;28;20457;-40
2022/02/16 07:44:23;;;;;;;25.67;24.40;;;19.50;89.80;;;;;;5073222;28;20453;-41
2022/02/16 07:46:50;;;;;;;25.80;24.50;;;19.50;89.40;;;;;;5073094;28;20451;-40
2022/02/16 07:49:17;;;;;;;27.03;25.57;;;19.50;88.90;;;;;;5072671;28;20483;-40
2022/02/16 07:51:43;;;;;;;26.07;24.67;;;19.40;88.50;;;;;;5072056;28;20452;-39
2022/02/16 07:54:10;;;;;;;27.17;25.40;;;19.40;88.10;;;;;;5073007;28;20452;-41
2022/02/16 07:56:38;;;;;;;26.27;24.77;;;19.40;87.70;;;;;;5072970;28;20471;-41
2022/02/16 07:59:05;;;;;;;26.83;25.20;;;19.40;87.10;;;;;;5072654;28;20883;-40
2022/02/16 08:01:32;;;;;;;23.20;22.10;;;19.40;86.90;;;;;;5072740;28;20447;-39
2022/02/16 08:04:15;;;;;;;23.40;22.17;;;19.30;86.40;;;;;;5072940;28;20443;-39
2022/02/16 08:06:42;;;;;;;23.50;22.30;;;19.30;86.10;;;;;;5072747;28;20819;-40
2022/02/16 08:09:10;;;;;;;25.37;24.17;;;19.30;85.80;;;;;;5072219;28;20479;-40
2022/02/16 08:11:38;;;;;;;26.37;24.67;;;19.30;85.60;;;;;;5072612;28;20443;-40
2022/02/16 08:14:06;;;;;;;23.97;22.77;;;19.20;85.30;;;;;;5072545;28;20444;-40
2022/02/16 08:16:33;;;;;;;25.63;24.23;;;19.20;85.10;;;;;;5072522;28;20458;-40
2022/02/16 08:19:01;;;;;;;25.07;23.83;;;19.20;84.90;;;;;;5072181;28;20994;-40
2022/02/16 08:21:28;;;;;;;27.00;25.40;;;19.20;84.70;;;;;;5072347;28;20462;-39
2022/02/16 08:23:55;;;;;;;25.10;23.90;;;19.10;84.30;;;;;;5072444;28;20447;-40
2022/02/16 08:26:22;;;;;;;27.57;26.10;;;19.10;84.30;;;;;;5072285;28;20446;-39
2022/02/16 08:28:50;;;;;;;26.00;24.77;;;19.10;84.30;;;;;;5071914;28;20483;-40
2022/02/16 08:31:16;;;;;;;25.47;24.27;;;19.10;84.10;;;;;;5072262;28;20450;-39
2022/02/16 08:33:43;;;;;;;26.13;24.87;;;19.10;84.00;;;;;;5072114;28;20973;-40
2022/02/16 08:36:11;;;;;;;26.00;24.70;;;19.10;84.10;;;;;;5072048;28;20446;-40
2022/02/16 08:38:39;;;;;;;27.60;26.20;;;19.10;84.30;;;;;;5071732;28;20889;-40
2022/02/16 08:41:06;;;;;;;25.50;24.30;;;19.10;83.90;;;;;;5072000;28;20443;-40
2022/02/16 08:43:33;;;;;;;25.93;24.73;;;19.20;83.80;;;;;;5072000;28;20484;-39
2022/02/16 08:46:02;;;;;;;24.90;23.80;;;19.20;82.80;;;;;;5071900;28;20444;-40
2022/02/16 08:48:29;;;;;;;25.43;24.23;;;19.30;82.80;;;;;;5071689;28;20528;-40
2022/02/16 08:50:57;;;;;;;27.47;26.13;;;19.30;82.00;;;;;;5071690;28;20459;-39
2022/02/16 08:53:26;;;;;;;25.20;24.00;;;19.30;81.80;;;;;;5071794;28;20451;-40
2022/02/16 08:55:53;;;;;;;26.00;24.70;;;19.30;80.80;;;;;;5071788;28;20552;-39
2022/02/16 08:58:21;;;;;;;25.20;24.00;;;19.40;80.90;;;;;;5071774;28;20850;-39
2022/02/16 09:00:48;;;;;;;23.20;22.20;;;19.40;79.80;;;;;;5071714;28;20451;-40
2022/02/16 09:03:17;;;;;;;25.80;24.60;;;19.40;79.70;;;;;;5071497;28;20440;-40
2022/02/16 09:05:43;;;;;;;25.83;24.53;;;19.40;79.30;;;;;;5071747;28;20471;-40
2022/02/16 09:08:10;;;;;;;26.30;25.10;;;19.40;79.00;;;;;;5071265;28;20479;-40
2022/02/16 09:10:37;;;;;;;26.30;25.10;;;19.40;78.30;;;;;;5071570;28;20443;-39
2022/02/16 09:13:04;;;;;;;26.10;24.90;;;19.40;78.50;;;;;;5071675;28;20450;-40
2022/02/16 09:15:31;;;;;;;25.50;24.30;;;19.30;78.10;;;;;;5071648;28;20933;-40
2022/02/16 09:17:58;;;;;;;25.00;23.90;;;19.40;77.80;;;;;;5071528;28;20450;-41
2022/02/16 09:20:27;;;;;;;24.90;23.80;;;19.40;77.80;;;;;;5071428;28;20468;-39
2022/02/16 09:22:54;;;;;;;24.60;23.50;;;19.40;77.40;;;;;;5071526;28;20440;-40
2022/02/16 09:25:21;;;;;;;24.30;23.20;;;19.40;77.10;;;;;;5071452;28;20446;-40
2022/02/16 09:27:48;;;;;;;24.80;23.70;;;19.40;76.70;;;;;;5071257;28;20451;-39
2022/02/16 09:30:15;;;;;;;26.20;25.00;;;19.40;77.00;;;;;;5071442;28;20464;-40
2022/02/16 09:32:42;;;;;;;25.67;24.47;;;19.30;76.50;;;;;;5071332;28;20448;-42
2022/02/16 09:35:10;;;;;;;25.50;24.30;;;19.30;76.70;;;;;;5071348;28;20550;-40
2022/02/16 09:37:38;;;;;;;25.73;24.53;;;19.30;76.70;;;;;;5071280;28;20455;-40
2022/02/16 09:40:06;;;;;;;24.50;23.40;;;19.30;76.20;;;;;;5071272;28;20470;-40
2022/02/16 09:42:33;;;;;;;24.77;23.47;;;19.40;75.60;;;;;;5071285;28;20451;-42
2022/02/16 09:45:02;;;;;;;24.77;23.63;;;19.30;75.80;;;;;;5071438;28;20452;-40
2022/02/16 09:47:30;;;;;;;24.40;23.30;;;19.30;75.90;;;;;;5071363;28;20814;-39
2022/02/16 09:49:57;;;;;;;25.00;23.80;;;19.30;76.20;;;;;;5070927;28;20552;-42
2022/02/16 09:52:24;;;;;;;24.10;23.00;;;19.30;75.30;;;;;;5071243;28;20462;-39
2022/02/16 09:54:52;;;;;;;26.23;25.03;;;19.30;75.20;;;;;;5071196;28;20954;-39
2022/02/16 09:57:20;;;;;;;25.50;24.30;;;19.30;74.70;;;;;;5071201;28;20811;-40
2022/02/16 09:59:46;;;;;;;25.00;23.80;;;19.30;75.20;;;;;;5070970;28;20463;-39
2022/02/16 10:02:15;;;;;;;25.80;24.70;;;19.20;74.90;;;;;;5071172;28;20440;-40
2022/02/16 10:04:54;;;;;;;25.90;24.73;;;19.30;75.30;;;;;;5071183;28;20448;-39
2022/02/16 10:07:23;;;;;;;25.93;24.53;;;19.30;75.10;;;;;;5071208;28;20439;-39
2022/02/16 10:09:50;;;;;;;25.97;24.80;;;19.30;75.00;;;;;;5070779;28;20483;-40
2022/02/16 10:12:18;;;;;;;25.80;24.70;;;19.30;74.90;;;;;;5071067;28;20807;-39
2022/02/16 10:14:46;;;;;;;26.80;25.23;;;19.30;74.50;;;;;;5073487;28;20814;-39
2022/02/16 10:17:20;;;;;;;25.90;24.70;;;19.30;74.70;;;;;;5074157;28;20502;-39
2022/02/16 10:19:49;;;;;;;26.67;25.47;;;19.40;74.90;;;;;;5074669;28;20464;-42
2022/02/16 10:22:17;;;;;;;26.43;25.23;;;19.50;76.70;;;;;;5074681;28;20439;-41
2022/02/16 10:24:44;;;;;;;25.63;24.43;;;19.60;77.60;;;;;;5074694;28;20438;-41
2022/02/16 10:27:13;;;;;;;26.40;25.10;;;19.70;77.70;;;;;;5074528;28;20461;-42
2022/02/16 10:29:42;;;;;;;27.50;26.30;;;19.80;78.90;;;;;;5074084;28;20487;-42
2022/02/16 10:32:10;;;;;;;26.77;25.47;;;19.90;78.50;;;;;;5074403;28;20965;-42
2022/02/16 10:34:52;;;;;;;27.63;26.33;;;19.90;76.80;;;;;;5074397;28;20951;-44
2022/02/16 10:37:30;;;;;;;27.13;25.83;;;19.90;76.20;;;;;;5074407;28;20458;-42
2022/02/16 10:40:10;;;;;;;27.77;26.47;;;20.00;75.50;;;;;;5074338;28;20467;-41
2022/02/16 10:42:38;;;;;;;25.90;24.70;;;20.00;75.80;;;;;;5074317;28;20447;-41
2022/02/16 10:45:13;;;;;;;26.97;25.77;;;20.00;73.90;;;;;;5074455;28;20865;-41
2022/02/16 10:47:54;;;;;;;25.00;23.90;;;20.00;73.90;;;;;;5074261;28;20446;-41
2022/02/16 10:50:21;;;;;;;27.43;26.13;;;20.00;74.50;;;;;;5073927;28;20545;-42
2022/02/16 10:52:55;;;;;;;27.87;26.57;;;20.00;74.20;;;;;;5074128;28;20439;-42
2022/02/16 10:55:36;;;;;;;25.80;24.60;;;20.00;73.90;;;;;;5074208;28;20474;-42
2022/02/16 10:58:04;;;;;;;28.37;27.00;;;20.00;73.20;;;;;;5073962;28;20439;-43
2022/02/16 11:00:34;;;;;;;25.53;24.33;;;20.10;72.70;;;;;;5074105;28;20459;-43
2022/02/16 11:03:03;;;;;;;26.33;25.13;;;20.10;72.60;;;;;;5074039;28;20927;-42
2022/02/16 11:05:31;;;;;;;26.17;25.07;;;20.10;72.60;;;;;;5073920;28;20439;-42
2022/02/16 11:07:59;;;;;;;26.73;25.53;;;20.10;71.10;;;;;;5073887;28;20926;-42
2022/02/16 11:10:28;;;;;;;25.90;24.70;;;20.10;71.20;;;;;;5073669;28;20490;-42
2022/02/16 11:12:55;;;;;;;23.70;22.50;;;20.10;71.30;;;;;;5073710;28;20443;-44
2022/02/16 11:15:23;;;;;;;26.07;24.90;;;20.20;71.10;;;;;;5073685;28;20786;-42
2022/02/16 11:17:51;;;;;;;25.43;24.23;;;20.20;70.60;;;;;;5073557;28;20448;-42
2022/02/16 11:20:20;;;;;;;26.67;25.47;;;20.20;69.20;;;;;;5073390;28;20459;-42
2022/02/16 11:22:51;;;;;;;26.00;24.80;;;20.20;70.20;;;;;;5073629;28;20455;-42
2022/02/16 11:25:27;;;;;;;25.30;24.20;;;20.20;70.30;;;;;;5073432;28;20443;-41
2022/02/16 11:27:54;;;;;;;25.63;24.43;;;20.10;70.10;;;;;;5073409;28;20455;-42
2022/02/16 11:30:30;;;;;;;24.77;23.57;;;20.10;69.90;;;;;;5073379;28;20494;-42
2022/02/16 11:33:17;;;;;;;25.40;24.20;;;20.10;69.50;;;;;;5073505;28;20438;-41
2022/02/16 11:35:49;;;;;;;26.30;25.10;;;20.10;69.70;;;;;;5073334;28;20443;-42
2022/02/16 11:38:19;;;;;;;24.83;23.73;;;20.10;69.20;;;;;;5072905;28;20460;-42
2022/02/16 11:40:47;;;;;;;26.00;24.80;;;20.00;69.60;;;;;;5073227;28;20455;-42
2022/02/16 11:43:16;;;;;;;25.67;24.47;;;20.00;69.60;;;;;;5073243;28;20462;-42
2022/02/16 11:45:50;;;;;;;26.00;24.80;;;20.00;68.70;;;;;;5073095;28;20443;-41
2022/02/16 11:48:43;;;;;;;26.40;25.20;;;20.00;69.10;;;;;;5072747;28;20451;-42
2022/02/16 11:51:42;;;;;;;27.20;26.00;;;20.00;68.50;;;;;;5073541;28;20508;-42
2022/02/16 11:54:44;;;;;;;26.10;24.90;;;19.90;68.70;;;;;;5060930;28;20982;-41
2022/02/16 11:57:38;;;;;;;26.63;25.43;;;19.90;69.60;;;;;;5072837;28;20443;-43
2022/02/16 12:00:11;;;;;;;26.70;25.50;;;19.80;70.40;;;;;;5072721;28;20466;-41
2022/02/16 12:03:23;;;;;;;26.23;25.00;;;19.80;70.60;;;;;;5072776;28;20440;-40
2022/02/16 12:06:03;;;;;;;26.90;25.70;;;19.80;72.00;;;;;;5072872;28;20443;-43
2022/02/16 12:08:32;;;;;;;25.50;24.30;;;19.80;70.40;;;;;;5072363;28;20974;-41
2022/02/16 12:11:06;;;;;;;26.63;25.33;;;19.90;71.20;;;;;;5072569;28;20486;-41
2022/02/16 12:13:35;;;;;;;26.70;25.50;;;19.90;71.00;;;;;;5072742;28;20439;-41
2022/02/16 12:16:05;;;;;;;26.60;25.40;;;20.00;70.70;;;;;;5072498;28;20858;-41
2022/02/16 12:18:33;;;;;;;26.90;25.60;;;20.00;70.00;;;;;;5072194;28;20456;-43
2022/02/16 12:21:01;;;;;;;25.50;24.30;;;20.00;68.90;;;;;;5072479;28;20455;-42
2022/02/16 12:23:29;;;;;;;26.60;25.40;;;20.00;70.30;;;;;;5072382;28;20442;-41
2022/02/16 12:26:04;;;;;;;25.67;24.47;;;20.10;70.70;;;;;;5072323;28;20447;-41
2022/02/16 12:28:46;;;;;;;27.07;25.77;;;20.20;70.00;;;;;;5072020;28;20467;-44
2022/02/16 12:31:14;;;;;;;29.50;28.20;;;20.20;70.00;;;;;;5072191;28;20451;-41
2022/02/16 12:33:41;;;;;;;28.83;27.53;;;20.20;69.20;;;;;;5072164;28;20470;-43
2022/02/16 12:36:09;;;;;;;28.50;27.30;;;20.10;68.90;;;;;;5071682;28;20496;-42
2022/02/16 12:38:37;;;;;;;26.67;25.47;;;20.10;70.10;;;;;;5071665;28;20463;-41
2022/02/16 12:41:08;;;;;;;25.67;24.50;;;20.10;69.70;;;;;;5072180;28;20455;-41
2022/02/16 12:43:35;;;;;;;25.60;24.40;;;20.20;68.70;;;;;;5072035;28;20451;-41
2022/02/16 12:46:02;;;;;;;27.83;26.63;;;20.20;68.50;;;;;;5071929;28;20448;-42